createdAt,value
2019-02-16T00:05:48.093Z,4.0
2019-02-16T00:22:36.551Z,4.0
2019-02-16T00:39:23.440Z,4.0
2019-02-16T00:56:11.133Z,4.0
2019-02-16T01:12:58.551Z,4.0
2019-02-16T01:29:45.940Z,4.0
2019-02-16T01:46:33.212Z,4.0
2019-02-16T02:03:20.532Z,3.9
2019-02-16T02:20:07.618Z,3.9
2019-02-16T02:36:54.589Z,3.9
2019-02-16T02:53:41.391Z,3.9
2019-02-16T03:10:28.192Z,3.9
2019-02-16T03:27:14.777Z,3.9
2019-02-16T03:44:01.312Z,3.9
2019-02-16T04:00:47.679Z,3.9
2019-02-16T04:17:34.590Z,3.9
2019-02-16T04:34:20.311Z,3.9
2019-02-16T04:51:06.374Z,3.8
2019-02-16T05:07:52.411Z,3.8
2019-02-16T05:24:38.253Z,3.8
2019-02-16T05:41:24.141Z,3.8
2019-02-16T05:58:10.314Z,3.8
2019-02-16T06:14:55.916Z,3.8
2019-02-16T06:31:41.645Z,3.8
2019-02-16T06:48:27.316Z,3.8
2019-02-16T07:05:13.085Z,3.8
2019-02-16T07:21:58.964Z,3.8
2019-02-16T07:38:44.627Z,3.9
2019-02-16T07:55:30.223Z,3.9
2019-02-16T08:12:15.964Z,4.0
2019-02-16T08:29:01.681Z,4.2
2019-02-16T08:45:47.776Z,4.3
2019-02-16T09:02:34.407Z,4.4
2019-02-16T09:19:21.177Z,4.5
2019-02-16T09:36:08.384Z,4.5
2019-02-16T09:52:55.241Z,4.5
2019-02-16T10:09:42.627Z,4.5
2019-02-16T10:26:30.385Z,4.6
2019-02-16T10:43:18.388Z,4.6
2019-02-16T11:00:06.519Z,4.6
2019-02-16T11:16:55.071Z,4.6
2019-02-16T11:33:43.643Z,4.6
2019-02-16T11:50:32.600Z,4.6
2019-02-16T12:07:21.746Z,4.6
2019-02-16T12:24:10.966Z,4.6
2019-02-16T12:41:00.216Z,4.6
2019-02-16T12:57:49.820Z,4.6
2019-02-16T13:14:38.866Z,4.6
2019-02-16T13:31:28.228Z,4.6
2019-02-16T13:48:17.769Z,4.6
2019-02-16T14:05:07.274Z,4.6
2019-02-16T14:21:56.894Z,4.6
2019-02-16T14:38:46.550Z,4.6
2019-02-16T14:55:35.858Z,4.5
2019-02-16T15:12:25.334Z,4.5
2019-02-16T15:20:50.082Z,4.5
2019-02-16T15:26:00.672Z,4.5
2019-02-16T15:32:36.404Z,4.5
2019-02-16T15:49:24.862Z,4.5
2019-02-16T16:06:13.415Z,4.5
2019-02-16T16:23:02.334Z,4.4
2019-02-16T18:54:23.308Z,4.2
2019-02-16T19:11:11.353Z,4.2
2019-02-16T19:27:59.638Z,4.2
2019-02-16T19:44:47.697Z,4.2
2019-02-16T20:01:35.761Z,4.2
2019-02-16T20:18:23.813Z,4.2
2019-02-16T20:35:11.662Z,4.2
2019-02-16T20:51:59.608Z,4.2
2019-02-16T21:08:47.586Z,4.2
2019-02-16T21:25:35.256Z,4.1
2019-02-16T21:42:23.361Z,4.1
2019-02-16T21:59:18.999Z,4.1
2019-02-16T22:15:58.746Z,4.1
2019-02-16T22:32:54.351Z,4.1
2019-02-16T22:49:34.402Z,4.1
2019-02-16T23:06:22.222Z,4.1
2019-02-16T23:23:09.955Z,4.1
2019-02-16T23:39:57.458Z,4.1
2019-02-16T23:56:44.951Z,4.0
